Terminal Aerodrome Forecast
Issued by NWS

Home | Current Version | Previous Version | Text Only | Print | Product List | Glossary Off
Versions: 1 2 3 4 5 6 7 8 9 10 11 12 13 14 15 16 17 18 19 20 21 22 23 24

171
FTUS42 KMHX 220540
TAFOAJ
TAF
KOAJ 220540Z 2206/2306 02004KT P6SM VCSH SCT030 BKN090
     FM220900 02003KT 5SM BR BKN010
     FM221400 35005KT P6SM VCSH OVC025
     FM222000 35006KT P6SM -SHRA BKN040
     FM230200 36006KT P6SM BKN050
      AMD LTD TO CLD VIS AND WIND=

USA.gov is the U.S. government's official web portal to all federal, state and local government web resources and services.